createdAt,value
2019-01-02T00:00:41.018Z,4.40
2019-01-02T00:03:10.270Z,4.40
2019-01-02T00:05:40.202Z,4.50
2019-01-02T00:08:09.489Z,4.50
2019-01-02T00:10:39.078Z,4.60
2019-01-02T00:13:08.969Z,4.60
2019-01-02T00:15:38.539Z,4.70
2019-01-02T00:18:07.809Z,4.70
2019-01-02T00:20:37.126Z,4.70
2019-01-02T00:23:06.779Z,4.70
2019-01-02T00:25:36.077Z,4.60
2019-01-02T00:28:05.769Z,4.60
2019-01-02T00:30:35.059Z,4.60
2019-01-02T00:33:04.693Z,4.60
2019-01-02T00:35:33.997Z,4.50
2019-01-02T00:38:03.276Z,4.50
2019-01-02T00:40:32.599Z,4.50
2019-01-02T00:43:01.997Z,4.40
2019-01-02T00:45:31.330Z,4.40
2019-01-02T00:48:00.583Z,4.40
2019-01-02T00:50:30.164Z,4.40
2019-01-02T00:52:59.520Z,4.40
2019-01-02T00:55:29.098Z,4.30
2019-01-02T00:57:59.248Z,4.20
2019-01-02T01:00:30.918Z,4.20
2019-01-02T01:03:00.200Z,4.20
2019-01-02T01:05:29.462Z,4.20
2019-01-02T01:07:58.750Z,4.20
2019-01-02T01:10:28.018Z,4.20
2019-01-02T01:12:57.367Z,4.20
2019-01-02T01:15:26.605Z,4.20
2019-01-02T01:17:55.997Z,4.30
2019-01-02T01:20:25.254Z,4.30
2019-01-02T01:22:54.642Z,4.40
2019-01-02T01:25:24.374Z,4.30
2019-01-02T01:27:53.676Z,4.30
2019-01-02T01:30:22.923Z,4.20
2019-01-02T01:32:52.276Z,4.20
2019-01-02T01:35:21.686Z,4.10
2019-01-02T01:37:53.495Z,4.10
2019-01-02T01:40:22.862Z,4.20
2019-01-02T01:42:52.234Z,4.30
2019-01-02T01:45:21.792Z,4.30
2019-01-02T01:47:51.073Z,4.20
2019-01-02T01:50:20.797Z,4.30
2019-01-02T01:52:50.083Z,4.30
2019-01-02T01:55:19.350Z,4.30
2019-01-02T01:57:49.130Z,4.20
2019-01-02T02:00:20.259Z,4.20
2019-01-02T02:02:49.762Z,4.30
2019-01-02T02:05:19.234Z,4.20
2019-01-02T02:07:48.511Z,4.20
2019-01-02T02:10:18.752Z,4.20
2019-01-02T02:12:48.038Z,4.20
2019-01-02T02:15:17.390Z,4.20
2019-01-02T02:17:47.162Z,4.20
2019-01-02T02:20:16.518Z,4.20
2019-01-02T02:22:45.818Z,4.20
2019-01-02T02:25:17.768Z,4.10
2019-01-02T02:27:48.954Z,4.10
2019-01-02T02:30:18.801Z,4.10
2019-01-02T02:32:49.542Z,4.10
2019-01-02T02:35:19.060Z,4.10
2019-01-02T02:37:48.351Z,4.20
2019-01-02T02:40:17.614Z,4.10
2019-01-02T02:42:46.922Z,4.10
2019-01-02T02:45:16.462Z,4.10
2019-01-02T02:47:46.120Z,4.00
2019-01-02T02:50:16.840Z,4.00
2019-01-02T02:52:46.893Z,4.10
2019-01-02T02:55:24.901Z,4.10
2019-01-02T02:57:54.206Z,4.00
2019-01-02T03:00:23.462Z,4.10
2019-01-02T03:02:52.778Z,4.00
2019-01-02T03:05:22.105Z,3.90
2019-01-02T03:07:51.380Z,3.90
2019-01-02T03:10:21.012Z,3.90
2019-01-02T03:12:50.598Z,3.90
2019-01-02T03:15:20.166Z,3.90
2019-01-02T03:17:50.066Z,3.80
2019-01-02T03:20:19.339Z,3.80
2019-01-02T03:22:48.635Z,3.80
2019-01-02T03:25:18.557Z,3.70
2019-01-02T03:27:48.133Z,3.70
2019-01-02T03:30:19.427Z,3.70
2019-01-02T03:32:49.003Z,3.80
2019-01-02T03:35:18.666Z,3.80
2019-01-02T03:37:47.939Z,3.80
2019-01-02T03:40:17.278Z,3.80
2019-01-02T03:42:46.616Z,3.70
2019-01-02T03:45:18.233Z,3.60
2019-01-02T03:47:48.012Z,3.60
2019-01-02T03:50:18.766Z,3.70
2019-01-02T03:52:48.184Z,3.70
2019-01-02T03:55:17.553Z,3.70
2019-01-02T03:57:46.923Z,3.60
2019-01-02T04:00:18.242Z,3.60
2019-01-02T04:02:47.551Z,3.60
2019-01-02T04:05:19.462Z,3.60
2019-01-02T04:07:52.223Z,3.60
2019-01-02T04:10:21.483Z,3.60
2019-01-02T04:12:50.786Z,3.60
2019-01-02T04:15:20.125Z,3.60
2019-01-02T04:17:49.404Z,3.60
2019-01-02T04:20:18.720Z,3.60
2019-01-02T04:22:48.022Z,3.60
2019-01-02T04:25:17.273Z,3.50
2019-01-02T04:27:46.637Z,3.50
2019-01-02T04:30:16.013Z,3.50
2019-01-02T04:32:45.413Z,3.60
2019-01-02T04:35:14.670Z,3.60
2019-01-02T04:37:43.909Z,3.60
2019-01-02T04:40:13.654Z,3.40
2019-01-02T04:42:42.917Z,3.40
2019-01-02T04:45:12.321Z,3.50
2019-01-02T04:47:41.724Z,3.50
2019-01-02T04:50:12.703Z,3.40
2019-01-02T04:52:42.001Z,3.40
2019-01-02T04:55:11.354Z,3.40
2019-01-02T04:57:40.640Z,3.50
2019-01-02T05:00:12.929Z,3.50
2019-01-02T05:02:42.207Z,3.40
2019-01-02T05:05:11.490Z,3.40
2019-01-02T05:07:40.755Z,3.40
2019-01-02T05:10:11.548Z,3.40
2019-01-02T05:12:40.792Z,3.40
2019-01-02T05:15:10.659Z,3.40
2019-01-02T05:17:39.954Z,3.40
2019-01-02T05:20:11.490Z,3.40
2019-01-02T05:22:40.733Z,3.20
2019-01-02T05:25:09.942Z,3.20
2019-01-02T05:27:39.252Z,3.20
2019-01-02T05:30:11.879Z,3.20
2019-01-02T05:32:41.173Z,3.10
2019-01-02T05:35:10.494Z,3.10
2019-01-02T05:37:39.947Z,3.20
2019-01-02T05:40:14.972Z,3.10
2019-01-02T05:42:44.232Z,3.10
2019-01-02T05:45:13.582Z,3.10
2019-01-02T05:47:42.882Z,3.10
2019-01-02T05:50:12.241Z,3.20
2019-01-02T05:52:41.506Z,3.10
2019-01-02T05:55:10.765Z,3.10
2019-01-02T05:57:40.130Z,3.20
2019-01-02T06:00:11.920Z,3.20
2019-01-02T06:02:41.233Z,3.20
2019-01-02T06:05:10.573Z,3.20
2019-01-02T06:07:39.826Z,3.10
2019-01-02T06:10:12.011Z,3.10
2019-01-02T06:12:41.306Z,3.00
2019-01-02T06:15:12.765Z,3.10
2019-01-02T06:17:41.966Z,3.10
2019-01-02T06:20:13.138Z,3.10
2019-01-02T06:22:42.428Z,3.20
2019-01-02T06:25:11.741Z,3.10
2019-01-02T06:27:41.022Z,3.10
2019-01-02T06:30:12.307Z,3.10
2019-01-02T06:32:41.617Z,3.20
2019-01-02T06:35:11.239Z,3.20
2019-01-02T06:37:40.574Z,3.20
2019-01-02T06:40:11.955Z,3.30
2019-01-02T06:42:41.293Z,3.30
2019-01-02T06:45:12.833Z,3.30
2019-01-02T06:47:42.266Z,3.20
2019-01-02T06:50:15.005Z,3.20
2019-01-02T06:52:44.291Z,3.20
2019-01-02T06:55:13.631Z,3.20
2019-01-02T06:57:42.973Z,3.20
2019-01-02T07:00:15.524Z,3.20
2019-01-02T07:02:44.898Z,3.20
2019-01-02T07:05:14.222Z,3.20
2019-01-02T07:07:43.617Z,3.20
2019-01-02T07:10:12.980Z,3.20
2019-01-02T07:12:42.314Z,3.20
2019-01-02T07:15:11.883Z,3.20
2019-01-02T07:17:41.148Z,3.20
2019-01-02T07:20:10.878Z,3.20
2019-01-02T07:22:40.307Z,3.20
2019-01-02T07:25:09.722Z,3.20
2019-01-02T07:27:39.092Z,3.30
2019-01-02T07:30:12.034Z,3.30
2019-01-02T07:32:41.322Z,3.20
2019-01-02T07:36:00.975Z,3.20
2019-01-02T07:39:13.550Z,3.20
2019-01-02T07:42:20.917Z,3.30
2019-01-02T07:45:29.721Z,3.40
2019-01-02T07:48:28.519Z,3.40
2019-01-02T07:51:22.787Z,3.50
2019-01-02T07:54:42.112Z,3.50
2019-01-02T07:58:03.806Z,3.50
2019-01-02T08:00:58.465Z,3.50
2019-01-02T08:03:50.254Z,3.60
2019-01-02T08:07:02.567Z,3.50
2019-01-02T08:10:34.582Z,3.30
2019-01-02T08:13:55.916Z,3.20
2019-01-02T08:16:56.978Z,3.20
2019-01-02T08:19:55.738Z,3.10
2019-01-02T08:23:01.078Z,3.10
2019-01-02T08:26:08.749Z,3.10
2019-01-02T08:29:15.529Z,3.10
2019-01-02T08:32:22.370Z,3.10
2019-01-02T08:35:42.021Z,3.20
2019-01-02T08:38:52.871Z,3.30
2019-01-02T08:42:18.470Z,3.40
2019-01-02T08:45:23.758Z,3.60
2019-01-02T08:48:33.156Z,3.80
2019-01-02T08:51:45.511Z,4.00
2019-01-02T08:54:51.723Z,4.20
2019-01-02T08:57:44.884Z,4.30
2019-01-02T09:00:53.541Z,4.40
2019-01-02T09:04:05.702Z,4.80
2019-01-02T09:07:24.079Z,5.30
2019-01-02T09:10:39.823Z,5.90
2019-01-02T09:13:35.262Z,6.10
2019-01-02T09:16:38.523Z,5.90
2019-01-02T09:19:31.075Z,5.80
2019-01-02T09:22:25.324Z,5.50
2019-01-02T09:25:35.140Z,5.20
2019-01-02T09:28:31.133Z,4.90
2019-01-02T09:31:29.422Z,4.80
2019-01-02T09:34:33.602Z,4.80
2019-01-02T09:37:40.989Z,4.80
2019-01-02T09:40:40.906Z,4.70
2019-01-02T09:44:05.552Z,4.90
2019-01-02T09:47:21.851Z,5.40
2019-01-02T09:50:34.015Z,6.00
2019-01-02T09:53:47.568Z,6.30
2019-01-02T09:56:50.566Z,6.40
2019-01-02T09:59:57.291Z,6.80
2019-01-02T10:03:03.654Z,7.20
2019-01-02T10:06:16.518Z,7.40
2019-01-02T10:09:22.005Z,7.20
2019-01-02T10:12:19.901Z,7.20
2019-01-02T10:15:36.424Z,7.30
2019-01-02T10:18:38.459Z,7.60
2019-01-02T10:21:43.974Z,7.80
2019-01-02T10:25:06.260Z,7.60
2019-01-02T10:28:22.633Z,8.00
2019-01-02T10:31:33.239Z,8.40
2019-01-02T10:34:19.799Z,8.50
2019-01-02T10:37:22.671Z,8.60
2019-01-02T10:40:29.818Z,8.90
2019-01-02T10:43:27.670Z,8.60
2019-01-02T10:46:38.417Z,8.60
2019-01-02T10:49:33.933Z,8.70
2019-01-02T10:52:48.860Z,8.70
2019-01-02T10:55:47.025Z,8.30
2019-01-02T10:59:01.606Z,8.40
2019-01-02T11:02:15.506Z,8.60
2019-01-02T11:05:29.143Z,8.80
2019-01-02T11:08:34.893Z,8.50
2019-01-02T11:11:46.853Z,8.60
2019-01-02T11:14:44.469Z,9.00
2019-01-02T11:17:42.437Z,9.30
2019-01-02T11:21:05.237Z,8.90
2019-01-02T11:24:14.418Z,8.90
2019-01-02T11:27:30.192Z,8.80
2019-01-02T11:30:30.551Z,8.60
2019-01-02T11:34:02.469Z,8.90
2019-01-02T11:37:01.936Z,8.70
2019-01-02T11:40:26.390Z,8.20
2019-01-02T11:43:24.685Z,8.20
2019-01-02T11:45:53.966Z,8.10
2019-01-02T11:48:23.242Z,7.40
2019-01-02T11:50:52.578Z,6.90
2019-01-02T11:53:21.887Z,6.60
2019-01-02T11:55:51.170Z,6.50
2019-01-02T11:58:20.456Z,6.60
2019-01-02T12:00:49.813Z,6.80
2019-01-02T12:03:19.199Z,6.90
2019-01-02T12:05:48.643Z,6.60
2019-01-02T12:08:17.936Z,6.40
2019-01-02T12:10:47.206Z,6.30
2019-01-02T12:13:16.499Z,6.20
2019-01-02T12:15:45.743Z,6.00
2019-01-02T12:18:15.018Z,5.80
2019-01-02T12:20:44.329Z,5.70
2019-01-02T12:23:13.606Z,5.60
2019-01-02T12:25:42.861Z,5.60
2019-01-02T12:28:12.274Z,5.60
2019-01-02T12:30:41.482Z,5.60
2019-01-02T12:33:10.850Z,5.50
2019-01-02T12:35:40.193Z,5.50
2019-01-02T12:38:09.413Z,5.50
2019-01-02T12:40:38.673Z,5.50
2019-01-02T12:43:07.969Z,5.50
2019-01-02T12:45:37.241Z,5.40
2019-01-02T12:48:06.510Z,5.40
2019-01-02T12:50:35.806Z,5.40
2019-01-02T12:53:05.274Z,5.40
2019-01-02T12:55:34.526Z,5.40
2019-01-02T12:58:03.867Z,5.40
2019-01-02T13:00:41.879Z,5.30
2019-01-02T13:03:51.320Z,5.30
2019-01-02T13:06:55.645Z,5.30
2019-01-02T13:10:12.424Z,5.30
2019-01-02T13:13:19.207Z,5.30
2019-01-02T13:16:38.058Z,5.30
2019-01-02T13:19:45.288Z,5.20
2019-01-02T13:22:40.636Z,5.20
2019-01-02T13:25:36.031Z,5.40
2019-01-02T13:28:31.884Z,5.40
2019-01-02T13:31:24.230Z,5.30
2019-01-02T13:34:14.658Z,5.20
2019-01-02T13:36:59.343Z,5.10
2019-01-02T13:40:08.399Z,5.00
2019-01-02T13:43:01.965Z,5.00
2019-01-02T13:45:53.603Z,5.00
2019-01-02T13:49:00.144Z,4.90
2019-01-02T13:51:32.224Z,4.90
2019-01-02T13:54:01.551Z,4.90
2019-01-02T13:56:32.945Z,4.90
2019-01-02T13:59:02.442Z,4.70
2019-01-02T14:01:31.726Z,4.70
2019-01-02T14:04:03.591Z,4.60
2019-01-02T14:06:32.845Z,4.60
2019-01-02T14:09:02.202Z,4.60
2019-01-02T14:11:31.939Z,4.60
2019-01-02T14:14:01.340Z,4.60
2019-01-02T14:16:30.651Z,4.60
2019-01-02T14:18:59.918Z,4.60
2019-01-02T14:21:29.152Z,4.60
2019-01-02T14:23:58.605Z,4.60
2019-01-02T14:26:27.899Z,4.50
2019-01-02T14:28:57.256Z,4.40
2019-01-02T14:31:26.596Z,4.30
2019-01-02T14:33:55.911Z,4.20
2019-01-02T14:36:25.222Z,4.20
2019-01-02T14:38:54.505Z,4.10
2019-01-02T14:41:23.839Z,4.10
2019-01-02T14:43:53.214Z,4.00
2019-01-02T14:46:22.550Z,3.90
2019-01-02T14:48:51.818Z,3.90
2019-01-02T14:51:21.113Z,3.90
2019-01-02T14:53:50.432Z,3.80
2019-01-02T14:56:19.753Z,3.80
2019-01-02T14:58:49.010Z,3.70
2019-01-02T15:01:18.219Z,3.60
2019-01-02T15:03:47.496Z,3.60
2019-01-02T15:06:16.856Z,3.50
2019-01-02T15:08:46.138Z,3.50
2019-01-02T15:11:15.431Z,3.50
2019-01-02T15:13:44.696Z,3.50
2019-01-02T15:16:14.064Z,3.50
2019-01-02T15:18:43.461Z,3.60
2019-01-02T15:21:12.891Z,3.50
2019-01-02T15:23:42.194Z,3.40
2019-01-02T15:26:11.442Z,3.40
2019-01-02T15:28:41.904Z,3.30
2019-01-02T15:31:11.146Z,3.30
2019-01-02T15:33:40.447Z,3.30
2019-01-02T15:36:09.692Z,3.30
2019-01-02T15:38:38.902Z,3.30
2019-01-02T15:41:08.395Z,3.30
2019-01-02T15:43:37.722Z,3.20
2019-01-02T15:46:07.099Z,3.10
2019-01-02T15:48:36.508Z,3.00
2019-01-02T15:51:05.859Z,3.00
2019-01-02T15:53:35.276Z,2.90
2019-01-02T15:56:04.659Z,2.90
2019-01-02T15:58:33.974Z,3.00
2019-01-02T16:01:03.294Z,3.10
2019-01-02T16:03:32.609Z,3.10
2019-01-02T16:06:01.908Z,3.10
2019-01-02T16:08:31.303Z,3.10
2019-01-02T16:11:00.562Z,3.10
2019-01-02T16:13:29.960Z,3.10
2019-01-02T16:15:59.346Z,3.10
2019-01-02T16:18:28.646Z,3.00
2019-01-02T16:20:57.930Z,3.00
2019-01-02T16:23:27.339Z,2.90
2019-01-02T16:25:56.640Z,2.80
2019-01-02T16:28:27.778Z,2.80
2019-01-02T16:30:57.035Z,2.80
2019-01-02T16:33:26.371Z,2.70
2019-01-02T16:35:55.665Z,2.80
2019-01-02T16:38:24.947Z,2.80
2019-01-02T16:40:54.479Z,2.80
2019-01-02T16:43:23.810Z,2.70
2019-01-02T16:45:53.161Z,2.70
2019-01-02T16:48:22.530Z,2.60
2019-01-02T16:50:51.855Z,2.60
2019-01-02T16:53:21.277Z,2.60
2019-01-02T16:55:50.502Z,2.50
2019-01-02T16:58:19.813Z,2.40
2019-01-02T17:00:49.179Z,2.50
2019-01-02T17:03:18.498Z,2.40
2019-01-02T17:05:47.802Z,2.40
2019-01-02T17:08:17.199Z,2.40
2019-01-02T17:10:46.530Z,2.40
2019-01-02T17:13:16.005Z,2.30
2019-01-02T17:15:48.531Z,2.30
2019-01-02T17:18:17.812Z,2.30
2019-01-02T17:20:48.349Z,2.30
2019-01-02T17:23:17.637Z,2.30
2019-01-02T17:25:46.925Z,2.30
2019-01-02T17:28:16.242Z,2.30
2019-01-02T17:30:45.500Z,2.20
2019-01-02T17:33:14.894Z,2.30
2019-01-02T17:35:44.252Z,2.30
2019-01-02T17:38:13.538Z,2.30
2019-01-02T17:40:42.794Z,2.30
2019-01-02T17:43:12.203Z,2.30
2019-01-02T17:45:41.506Z,2.30
2019-01-02T17:48:10.967Z,2.10
2019-01-02T17:50:40.246Z,2.10
2019-01-02T17:53:09.507Z,2.10
2019-01-02T17:55:38.909Z,2.00
2019-01-02T17:58:08.289Z,2.00
2019-01-02T18:00:37.705Z,2.10
2019-01-02T18:03:07.339Z,2.00
2019-01-02T18:05:36.643Z,2.00
2019-01-02T18:08:05.918Z,2.00
2019-01-02T18:10:35.214Z,2.00
2019-01-02T18:13:04.464Z,1.90
2019-01-02T18:15:34.743Z,1.90
2019-01-02T18:18:04.328Z,1.90
2019-01-02T18:20:33.575Z,1.80
2019-01-02T18:23:03.463Z,1.80
2019-01-02T18:25:32.760Z,1.70
2019-01-02T18:28:02.115Z,1.70
2019-01-02T18:30:31.421Z,1.60
2019-01-02T18:33:00.849Z,1.70
2019-01-02T18:35:30.370Z,1.60
2019-01-02T18:38:01.523Z,1.60
2019-01-02T18:40:30.750Z,1.60
2019-01-02T18:43:00.145Z,1.60
2019-01-02T18:45:29.410Z,1.60
2019-01-02T18:47:58.738Z,1.60
2019-01-02T18:50:28.067Z,1.60
2019-01-02T18:52:57.354Z,1.50
2019-01-02T18:55:26.707Z,1.50
2019-01-02T18:57:56.081Z,1.40
2019-01-02T19:00:25.371Z,1.40
2019-01-02T19:02:54.635Z,1.40
2019-01-02T19:05:23.918Z,1.40
2019-01-02T19:07:53.244Z,1.40
2019-01-02T19:10:22.515Z,1.40
2019-01-02T19:12:51.752Z,1.30
2019-01-02T19:15:21.031Z,1.30
2019-01-02T19:17:50.276Z,1.20
2019-01-02T19:20:19.563Z,1.20
2019-01-02T19:22:48.817Z,1.20
2019-01-02T19:25:18.183Z,1.10
2019-01-02T19:27:47.739Z,1.10
2019-01-02T19:30:17.217Z,1.00
2019-01-02T19:32:46.761Z,1.10
2019-01-02T19:35:16.184Z,1.10
2019-01-02T19:37:45.442Z,1.10
2019-01-02T19:40:14.759Z,1.10
2019-01-02T19:42:44.077Z,1.10
2019-01-02T19:45:13.363Z,1.10
2019-01-02T19:47:42.855Z,1.00
2019-01-02T19:50:12.216Z,1.00
2019-01-02T19:52:41.480Z,1.00
2019-01-02T19:55:10.886Z,1.00
2019-01-02T19:57:40.250Z,1.00
2019-01-02T20:00:11.207Z,1.00
2019-01-02T20:02:40.570Z,1.00
2019-01-02T20:05:10.672Z,1.00
2019-01-02T20:07:40.182Z,1.00
2019-01-02T20:10:10.426Z,1.00
2019-01-02T20:12:39.751Z,1.00
2019-01-02T20:15:11.794Z,0.90
2019-01-02T20:17:42.996Z,0.80
2019-01-02T20:20:13.825Z,0.80
2019-01-02T20:22:43.311Z,0.80
2019-01-02T20:25:12.737Z,0.90
2019-01-02T20:27:43.961Z,0.90
2019-01-02T20:30:13.842Z,0.90
2019-01-02T20:32:43.221Z,0.80
2019-01-02T20:35:12.627Z,0.80
2019-01-02T20:37:42.044Z,0.80
2019-01-02T20:40:11.454Z,0.80
2019-01-02T20:42:40.770Z,0.80
2019-01-02T20:45:10.038Z,0.80
2019-01-02T20:47:39.357Z,0.80
2019-01-02T20:50:10.035Z,0.80
2019-01-02T20:52:39.354Z,0.90
2019-01-02T20:55:09.111Z,0.80
2019-01-02T20:57:38.459Z,0.80
2019-01-02T21:00:10.014Z,0.80
2019-01-02T21:02:39.426Z,0.80
2019-01-02T21:05:09.241Z,0.80
2019-01-02T21:07:38.443Z,0.70
2019-01-02T21:10:09.280Z,0.70
2019-01-02T21:12:38.586Z,0.70
2019-01-02T21:15:08.725Z,0.60
2019-01-02T21:17:38.020Z,0.70
2019-01-02T21:20:08.731Z,0.70
2019-01-02T21:22:38.073Z,0.60
2019-01-02T21:25:09.506Z,0.60
2019-01-02T21:27:38.881Z,0.60
2019-01-02T21:30:09.390Z,0.60
2019-01-02T21:32:38.749Z,0.50
2019-01-02T21:35:08.126Z,0.60
2019-01-02T21:37:37.534Z,0.50
2019-01-02T21:40:07.749Z,0.50
2019-01-02T21:42:37.147Z,0.50
2019-01-02T21:45:06.440Z,0.50
2019-01-02T21:47:35.827Z,0.50
2019-01-02T21:50:06.078Z,0.40
2019-01-02T21:52:35.827Z,0.40
2019-01-02T21:55:05.488Z,0.30
2019-01-02T21:57:34.790Z,0.30
2019-01-02T22:00:05.428Z,0.30
2019-01-02T22:02:40.328Z,0.30
2019-01-02T22:05:07.949Z,0.30
2019-01-02T22:07:38.978Z,0.40
2019-01-02T22:10:08.820Z,0.40
2019-01-02T22:12:38.111Z,0.30
2019-01-02T22:15:09.153Z,0.30
2019-01-02T22:17:38.475Z,0.20
2019-01-02T22:20:08.108Z,0.20
2019-01-02T22:22:37.439Z,0.20
2019-01-02T22:25:07.556Z,0.20
2019-01-02T22:27:36.845Z,0.20
2019-01-02T22:30:07.629Z,0.20
2019-01-02T22:32:36.913Z,0.20
2019-01-02T22:35:06.637Z,0.10
2019-01-02T22:37:36.072Z,0.00
2019-01-02T22:40:06.370Z,0.00
2019-01-02T22:42:35.684Z,0.00
2019-01-02T22:45:05.096Z,-0.10
2019-01-02T22:47:34.393Z,-0.10
2019-01-02T22:50:04.138Z,-0.10
2019-01-02T22:52:33.405Z,-0.10
2019-01-02T22:55:02.844Z,-0.10
2019-01-02T22:57:32.125Z,-0.20
2019-01-02T23:00:01.447Z,-0.20
2019-01-02T23:02:43.085Z,-0.10
2019-01-02T23:05:30.218Z,-0.20
2019-01-02T23:08:30.516Z,-0.20
2019-01-02T23:11:21.601Z,-0.20
2019-01-02T23:14:08.487Z,-0.20
2019-01-02T23:16:57.359Z,-0.30
2019-01-02T23:19:44.806Z,-0.30
2019-01-02T23:22:31.762Z,-0.40
2019-01-02T23:25:20.021Z,-0.40
2019-01-02T23:28:08.343Z,-0.40
2019-01-02T23:31:08.812Z,-0.40
2019-01-02T23:34:02.117Z,-0.50
2019-01-02T23:36:50.482Z,-0.50
2019-01-02T23:39:51.021Z,-0.60
2019-01-02T23:42:54.450Z,-0.50
2019-01-02T23:45:53.646Z,-0.50
2019-01-02T23:48:48.013Z,-0.50
2019-01-02T23:51:42.396Z,-0.40
2019-01-02T23:54:29.609Z,-0.40
2019-01-02T23:57:17.983Z,-0.50
